Date,TemperatureHighF,TemperatureAvgF,TemperatureLowF,DewpointHighF,DewpointAvgF,DewpointLowF,HumidityHigh,HumidityAvg,HumidityLow,PressureMaxIn,PressureMinIn,WindSpeedMaxMPH,WindSpeedAvgMPH,GustSpeedMaxMPH,PrecipitationSumIn
2013-5-1,57.0,45.6,42.3,45.0,27.3,-99.9,91,64,46,30.00,29.93,11,-89,18,0.00
2013-5-2,59.0,50.5,39.3,45.0,41.6,36.0,90,73,56,29.99,29.82,14,3,17,0.00
2013-5-3,58.7,49.8,48.3,50.0,37.1,-99.9,93,73,67,29.83,29.55,17,-57,27,0.14
2013-5-4,59.1,48.9,45.6,51.0,36.1,-99.9,91,72,53,29.69,29.51,18,-45,27,0.10
2013-5-5,62.4,56.0,51.8,51.0,49.2,46.0,91,78,61,29.79,29.68,19,7,25,0.02
2013-5-6,63.5,51.7,50.0,51.0,35.4,-99.9,84,67,59,29.78,29.68,14,-79,19,0.00
2013-5-7,63.1,55.0,46.5,50.0,46.8,43.0,90,75,54,29.72,29.38,21,5,24,0.00
2013-5-8,60.7,47.1,46.1,53.0,35.6,-99.9,97,81,55,29.37,29.00,21,-75,39,0.57
2013-5-9,53.0,47.7,43.9,49.0,43.6,38.0,97,86,72,29.27,28.89,28,14,39,0.69
2013-5-10,54.4,43.8,43.8,50.0,25.9,-99.9,96,69,47,29.43,29.27,19,-111,32,0.13
2013-5-11,50.7,46.5,43.1,46.0,41.5,38.0,95,83,67,29.65,29.38,23,9,33,0.22
2013-5-12,56.6,49.4,42.8,51.0,44.8,38.0,92,84,67,29.67,29.48,24,10,32,0.16
2013-5-13,49.1,43.3,42.0,42.0,32.7,-99.9,87,75,62,29.54,29.42,28,-34,39,0.20
2013-5-14,54.6,46.3,39.9,42.0,38.5,35.0,89,75,51,29.41,29.06,16,6,21,0.00
2013-5-15,51.1,45.3,41.0,42.0,39.1,36.0,90,79,65,29.25,29.12,19,7,28,0.06
2013-5-16,51.6,44.6,38.7,43.0,39.5,34.0,90,82,66,29.32,29.16,10,3,12,0.12
2013-5-17,54.4,46.9,36.9,45.0,40.6,35.0,94,80,61,29.62,29.33,13,3,17,0.00
2013-5-18,51.8,47.2,44.3,47.0,41.0,-99.9,94,83,71,29.62,29.43,13,-16,19,0.00
2013-5-19,60.8,40.0,49.5,50.0,5.6,-99.9,91,53,62,29.73,29.48,10,-282,12,0.00
2013-5-20,57.4,46.9,52.6,53.0,29.9,-99.9,92,75,81,29.84,29.72,13,-135,19,0.00
2013-5-21,62.0,38.4,47.1,50.0,2.3,-99.9,90,53,65,29.88,29.82,13,-303,19,0.00
2013-5-22,54.5,47.9,46.5,50.0,33.8,-99.9,95,68,56,29.95,29.88,19,-46,24,0.01
2013-5-23,50.0,45.9,40.5,41.0,37.2,34.0,88,72,55,29.89,29.78,19,9,32,0.01
2013-5-24,55.0,45.2,42.0,39.0,28.8,-99.9,85,63,50,29.91,29.73,21,-57,23,0.00
2013-5-25,62.2,52.9,41.4,46.0,42.3,37.0,87,68,47,29.92,29.84,11,2,13,0.00
2013-5-26,62.0,54.3,49.0,49.0,43.8,-99.9,93,72,51,29.87,29.46,17,-16,25,0.01
2013-5-27,56.3,50.9,46.2,49.0,45.8,42.0,95,83,62,29.45,29.13,21,7,30,0.61
2013-5-28,55.3,50.0,43.5,47.0,43.7,41.0,92,79,66,29.38,29.20,10,4,13,0.03
2013-5-29,66.0,54.0,47.8,53.0,41.9,-99.9,96,72,55,29.70,29.37,18,-36,21,0.32
2013-5-30,66.7,58.7,50.0,51.0,47.5,44.0,82,67,50,29.84,29.69,19,7,26,0.00
2013-5-31,58.6,53.9,48.0,53.0,47.2,40.0,94,79,61,29.98,29.84,14,4,18,0.00